sensor_id;sensor_type;location;lat;lon;timestamp;pressure;altitude;pressure_sealevel;temperature;humidity
47897;BME280;39629;51.400;5.494;2023-05-01T00:02:56;101563.81;;;11.32;100.00
47897;BME280;39629;51.400;5.494;2023-05-01T00:07:57;101573.50;;;11.35;100.00
47897;BME280;39629;51.400;5.494;2023-05-01T00:13:00;101554.13;;;11.27;100.00
47897;BME280;39629;51.400;5.494;2023-05-01T00:18:02;101547.97;;;11.26;100.00
47897;BME280;39629;51.400;5.494;2023-05-01T00:23:04;101544.44;;;11.21;100.00
47897;BME280;39629;51.400;5.494;2023-05-01T00:28:07;101541.78;;;11.16;100.00
47897;BME280;39629;51.400;5.494;2023-05-01T00:33:09;101536.44;;;11.08;100.00
47897;BME280;39629;51.400;5.494;2023-05-01T00:38:10;101532.03;;;11.04;100.00
47897;BME280;39629;51.400;5.494;2023-05-01T00:43:13;101524.09;;;10.97;100.00
47897;BME280;39629;51.400;5.494;2023-05-01T00:48:15;101526.56;;;10.81;100.00
47897;BME280;39629;51.400;5.494;2023-05-01T00:53:17;101520.41;;;10.79;100.00
47897;BME280;39629;51.400;5.494;2023-05-01T00:58:20;101511.69;;;10.83;100.00
47897;BME280;39629;51.400;5.494;2023-05-01T01:03:22;101497.56;;;10.72;100.00
47897;BME280;39629;51.400;5.494;2023-05-01T01:08:28;101493.91;;;10.54;100.00
47897;BME280;39629;51.400;5.494;2023-05-01T01:13:36;101493.81;;;10.45;100.00
47897;BME280;39629;51.400;5.494;2023-05-01T01:18:43;101487.69;;;10.45;100.00
47897;BME280;39629;51.400;5.494;2023-05-01T01:24:20;101479.75;;;10.37;100.00
47897;BME280;39629;51.400;5.494;2023-05-01T01:29:54;101471.88;;;10.37;100.00
47897;BME280;39629;51.400;5.494;2023-05-01T01:35:00;101466.53;;;10.29;100.00
47897;BME280;39629;51.400;5.494;2023-05-01T01:40:07;101455.94;;;10.23;100.00
47897;BME280;39629;51.400;5.494;2023-05-01T01:45:18;101448.91;;;10.19;100.00
47897;BME280;39629;51.400;5.494;2023-05-01T01:50:25;101449.75;;;10.16;100.00
47897;BME280;39629;51.400;5.494;2023-05-01T01:55:29;101436.63;;;10.16;100.00
47897;BME280;39629;51.400;5.494;2023-05-01T02:00:31;101434.94;;;10.26;100.00
47897;BME280;39629;51.400;5.494;2023-05-01T02:05:38;101440.94;;;10.11;100.00
47897;BME280;39629;51.400;5.494;2023-05-01T02:10:43;101431.38;;;10.22;100.00
47897;BME280;39629;51.400;5.494;2023-05-01T02:15:46;101421.69;;;10.15;100.00
47897;BME280;39629;51.400;5.494;2023-05-01T02:20:50;101415.50;;;10.07;100.00
47897;BME280;39629;51.400;5.494;2023-05-01T02:25:55;101411.16;;;10.12;100.00
47897;BME280;39629;51.400;5.494;2023-05-01T02:30:57;101407.59;;;10.09;100.00
47897;BME280;39629;51.400;5.494;2023-05-01T02:36:03;101402.34;;;10.07;100.00
47897;BME280;39629;51.400;5.494;2023-05-01T02:41:07;101397.06;;;10.04;100.00
47897;BME280;39629;51.400;5.494;2023-05-01T02:46:12;101391.72;;;9.98;100.00
47897;BME280;39629;51.400;5.494;2023-05-01T02:51:16;101384.69;;;9.94;100.00
47897;BME280;39629;51.400;5.494;2023-05-01T02:56:18;101381.19;;;9.92;100.00
47897;BME280;39629;51.400;5.494;2023-05-01T03:01:20;101370.66;;;9.88;100.00
47897;BME280;39629;51.400;5.494;2023-05-01T03:06:23;101365.31;;;9.84;100.00
47897;BME280;39629;51.400;5.494;2023-05-01T03:11:28;101364.47;;;9.85;100.00
47897;BME280;39629;51.400;5.494;2023-05-01T03:16:29;101358.34;;;9.87;100.00
47897;BME280;39629;51.400;5.494;2023-05-01T03:21:32;101346.94;;;9.85;100.00
47897;BME280;39629;51.400;5.494;2023-05-01T03:26:34;101344.34;;;9.87;100.00
47897;BME280;39629;51.400;5.494;2023-05-01T03:31:36;101333.75;;;9.81;100.00
47897;BME280;39629;51.400;5.494;2023-05-01T03:36:39;101327.63;;;9.79;100.00
47897;BME280;39629;51.400;5.494;2023-05-01T03:41:41;101321.44;;;9.75;100.00
47897;BME280;39629;51.400;5.494;2023-05-01T03:46:55;101319.66;;;9.69;100.00
47897;BME280;39629;51.400;5.494;2023-05-01T03:52:03;101329.25;;;9.67;100.00
47897;BME280;39629;51.400;5.494;2023-05-01T03:57:06;101314.31;;;9.62;100.00
47897;BME280;39629;51.400;5.494;2023-05-01T04:02:08;101321.31;;;9.60;100.00
47897;BME280;39629;51.400;5.494;2023-05-01T04:07:13;101309.91;;;9.58;100.00
47897;BME280;39629;51.400;5.494;2023-05-01T04:12:15;101302.91;;;9.57;100.00
47897;BME280;39629;51.400;5.494;2023-05-01T04:17:16;101314.28;;;9.56;100.00
47897;BME280;39629;51.400;5.494;2023-05-01T04:22:20;101305.47;;;9.52;100.00
47897;BME280;39629;51.400;5.494;2023-05-01T04:27:22;101312.47;;;9.50;100.00
47897;BME280;39629;51.400;5.494;2023-05-01T04:32:24;101320.22;;;9.36;100.00
47897;BME280;39629;51.400;5.494;2023-05-01T04:37:27;101330.72;;;9.33;100.00
47897;BME280;39629;51.400;5.494;2023-05-01T04:42:29;101332.53;;;9.39;100.00
47897;BME280;39629;51.400;5.494;2023-05-01T04:47:31;101318.50;;;9.41;100.00
47897;BME280;39629;51.400;5.494;2023-05-01T04:52:34;101324.72;;;9.48;100.00
47897;BME280;39629;51.400;5.494;2023-05-01T04:57:37;101326.47;;;9.47;100.00
47897;BME280;39629;51.400;5.494;2023-05-01T05:02:41;101330.06;;;9.59;100.00
47897;BME280;39629;51.400;5.494;2023-05-01T05:07:45;101329.22;;;9.63;100.00
47897;BME280;39629;51.400;5.494;2023-05-01T05:13:03;101333.66;;;9.67;100.00
47897;BME280;39629;51.400;5.494;2023-05-01T05:18:05;101317.97;;;9.76;100.00
47897;BME280;39629;51.400;5.494;2023-05-01T05:23:08;101320.59;;;9.73;100.00
47897;BME280;39629;51.400;5.494;2023-05-01T05:28:10;101327.66;;;9.83;100.00
47897;BME280;39629;51.400;5.494;2023-05-01T05:33:12;101326.91;;;9.97;100.00
47897;BME280;39629;51.400;5.494;2023-05-01T05:38:15;101314.69;;;10.05;100.00
47897;BME280;39629;51.400;5.494;2023-05-01T05:43:19;101307.75;;;10.22;100.00
47897;BME280;39629;51.400;5.494;2023-05-01T05:48:21;101313.16;;;10.44;100.00
47897;BME280;39629;51.400;5.494;2023-05-01T05:53:24;101314.09;;;10.60;100.00
47897;BME280;39629;51.400;5.494;2023-05-01T05:58:26;101311.53;;;10.74;100.00
47897;BME280;39629;51.400;5.494;2023-05-01T06:03:28;101307.25;;;10.93;100.00
47897;BME280;39629;51.400;5.494;2023-05-01T06:08:35;101310.78;;;11.09;100.00
47897;BME280;39629;51.400;5.494;2023-05-01T06:13:39;101316.13;;;11.35;100.00
47897;BME280;39629;51.400;5.494;2023-05-01T06:18:40;101317.00;;;11.39;100.00
47897;BME280;39629;51.400;5.494;2023-05-01T06:23:43;101317.03;;;11.61;100.00
47897;BME280;39629;51.400;5.494;2023-05-01T06:28:57;101305.59;;;11.77;100.00
47897;BME280;39629;51.400;5.494;2023-05-01T06:33:59;101302.97;;;11.86;100.00
47897;BME280;39629;51.400;5.494;2023-05-01T06:39:22;101289.72;;;12.33;100.00
47897;BME280;39629;51.400;5.494;2023-05-01T06:44:24;101297.59;;;12.30;100.00
47897;BME280;39629;51.400;5.494;2023-05-01T06:49:26;101290.59;;;12.32;100.00
47897;BME280;39629;51.400;5.494;2023-05-01T06:54:29;101282.66;;;12.46;100.00
47897;BME280;39629;51.400;5.494;2023-05-01T06:59:30;101290.22;;;13.15;100.00
47897;BME280;39629;51.400;5.494;2023-05-01T07:04:32;101286.38;;;13.59;100.00
47897;BME280;39629;51.400;5.494;2023-05-01T07:09:35;101295.38;;;13.34;100.00
47897;BME280;39629;51.400;5.494;2023-05-01T07:14:38;101289.13;;;13.47;100.00
47897;BME280;39629;51.400;5.494;2023-05-01T07:19:40;101288.78;;;13.90;100.00
47897;BME280;39629;51.400;5.494;2023-05-01T07:24:43;101285.13;;;14.05;100.00
47897;BME280;39629;51.400;5.494;2023-05-01T07:29:45;101290.97;;;14.34;100.00
47897;BME280;39629;51.400;5.494;2023-05-01T07:34:46;101296.00;;;15.25;100.00
47897;BME280;39629;51.400;5.494;2023-05-01T07:39:49;101293.22;;;15.35;100.00
47897;BME280;39629;51.400;5.494;2023-05-01T07:44:51;101287.78;;;15.44;100.00
47897;BME280;39629;51.400;5.494;2023-05-01T07:49:52;101295.25;;;15.17;100.00
47897;BME280;39629;51.400;5.494;2023-05-01T07:54:55;101286.56;;;15.65;100.00
47897;BME280;39629;51.400;5.494;2023-05-01T07:59:57;101278.75;;;16.52;100.00
47897;BME280;39629;51.400;5.494;2023-05-01T08:04:59;101276.75;;;16.64;100.00
47897;BME280;39629;51.400;5.494;2023-05-01T08:10:04;101270.44;;;17.84;100.00
47897;BME280;39629;51.400;5.494;2023-05-01T08:15:06;101272.88;;;17.57;100.00
47897;BME280;39629;51.400;5.494;2023-05-01T08:20:09;101272.56;;;17.69;100.00
47897;BME280;39629;51.400;5.494;2023-05-01T08:25:13;101280.38;;;17.00;100.00
47897;BME280;39629;51.400;5.494;2023-05-01T08:30:14;101273.09;;;18.17;100.00
47897;BME280;39629;51.400;5.494;2023-05-01T08:35:16;101271.41;;;18.13;100.00
47897;BME280;39629;51.400;5.494;2023-05-01T08:40:19;101263.28;;;18.52;100.00
47897;BME280;39629;51.400;5.494;2023-05-01T08:45:22;101260.94;;;18.07;100.00
47897;BME280;39629;51.400;5.494;2023-05-01T08:50:27;101264.53;;;17.71;100.00
47897;BME280;39629;51.400;5.494;2023-05-01T08:55:32;101264.22;;;18.79;100.00
47897;BME280;39629;51.400;5.494;2023-05-01T09:00:36;101270.31;;;18.53;100.00
47897;BME280;39629;51.400;5.494;2023-05-01T09:05:38;101270.22;;;18.58;100.00
47897;BME280;39629;51.400;5.494;2023-05-01T09:10:44;101278.81;;;18.67;100.00
47897;BME280;39629;51.400;5.494;2023-05-01T09:15:47;101278.25;;;18.86;100.00
47897;BME280;39629;51.400;5.494;2023-05-01T09:20:48;101278.53;;;19.33;100.00
47897;BME280;39629;51.400;5.494;2023-05-01T09:25:52;101282.13;;;19.32;100.00
47897;BME280;39629;51.400;5.494;2023-05-01T09:30:54;101274.88;;;19.37;100.00
47897;BME280;39629;51.400;5.494;2023-05-01T09:35:56;101274.97;;;19.61;100.00
47897;BME280;39629;51.400;5.494;2023-05-01T09:41:04;101259.59;;;19.95;87.37
47897;BME280;39629;51.400;5.494;2023-05-01T09:46:06;101256.03;;;20.45;80.80
47897;BME280;39629;51.400;5.494;2023-05-01T09:51:20;101256.34;;;20.37;76.56
47897;BME280;39629;51.400;5.494;2023-05-01T09:56:25;101262.78;;;20.79;75.52
47897;BME280;39629;51.400;5.494;2023-05-01T10:01:39;101264.41;;;20.83;63.97
47897;BME280;39629;51.400;5.494;2023-05-01T10:06:42;101265.47;;;20.55;63.94
47897;BME280;39629;51.400;5.494;2023-05-01T10:11:48;101257.31;;;20.34;65.87
47897;BME280;39629;51.400;5.494;2023-05-01T10:16:51;101269.63;;;21.32;64.72
47897;BME280;39629;51.400;5.494;2023-05-01T10:21:53;101260.38;;;21.82;59.26
47897;BME280;39629;51.400;5.494;2023-05-01T10:26:56;101260.31;;;21.40;60.62
47897;BME280;39629;51.400;5.494;2023-05-01T10:31:59;101266.44;;;20.76;62.87
47897;BME280;39629;51.400;5.494;2023-05-01T10:37:05;101263.75;;;21.87;61.75
47897;BME280;39629;51.400;5.494;2023-05-01T10:42:10;101271.94;;;21.41;62.98
47897;BME280;39629;51.400;5.494;2023-05-01T10:47:44;101271.72;;;20.30;63.47
47897;BME280;39629;51.400;5.494;2023-05-01T10:53:16;101264.00;;;20.93;64.99
47897;BME280;39629;51.400;5.494;2023-05-01T10:58:56;101271.03;;;20.23;62.97
47897;BME280;39629;51.400;5.494;2023-05-01T11:04:00;101276.13;;;19.54;63.91
47897;BME280;39629;51.400;5.494;2023-05-01T11:09:36;101271.69;;;20.55;64.82
47897;BME280;39629;51.400;5.494;2023-05-01T11:15:02;101269.97;;;20.53;65.31
47897;BME280;39629;51.400;5.494;2023-05-01T11:20:05;101284.28;;;19.76;72.34
47897;BME280;39629;51.400;5.494;2023-05-01T11:25:16;101278.63;;;19.30;68.37
47897;BME280;39629;51.400;5.494;2023-05-01T11:30:21;101290.97;;;18.76;69.38
47897;BME280;39629;51.400;5.494;2023-05-01T11:35:25;101293.09;;;18.32;72.12
47897;BME280;39629;51.400;5.494;2023-05-01T11:40:29;101297.06;;;18.17;72.20
47897;BME280;39629;51.400;5.494;2023-05-01T11:45:33;101290.91;;;18.15;72.98
47897;BME280;39629;51.400;5.494;2023-05-01T11:50:36;101291.78;;;17.81;74.44
47897;BME280;39629;51.400;5.494;2023-05-01T11:55:39;101293.44;;;18.84;71.98
47897;BME280;39629;51.400;5.494;2023-05-01T12:00:42;101280.69;;;18.31;70.05
47897;BME280;39629;51.400;5.494;2023-05-01T12:05:44;101291.19;;;18.70;67.60
47897;BME280;39629;51.400;5.494;2023-05-01T12:10:46;101290.53;;;19.75;64.75
47897;BME280;39629;51.400;5.494;2023-05-01T12:15:51;101276.66;;;20.88;63.34
47897;BME280;39629;51.400;5.494;2023-05-01T12:20:53;101278.88;;;21.01;62.54
47897;BME280;39629;51.400;5.494;2023-05-01T12:25:55;101280.97;;;19.95;60.72
47897;BME280;39629;51.400;5.494;2023-05-01T12:31:04;101282.53;;;19.20;60.75
47897;BME280;39629;51.400;5.494;2023-05-01T12:36:09;101277.75;;;19.58;61.48
47897;BME280;39629;51.400;5.494;2023-05-01T12:41:11;101283.00;;;19.61;61.92
47897;BME280;39629;51.400;5.494;2023-05-01T12:46:14;101271.75;;;20.54;62.81
47897;BME280;39629;51.400;5.494;2023-05-01T12:51:17;101278.75;;;21.04;64.37
47897;BME280;39629;51.400;5.494;2023-05-01T12:56:21;101270.38;;;20.17;63.66
47897;BME280;39629;51.400;5.494;2023-05-01T13:01:26;101277.06;;;20.30;61.98
47897;BME280;39629;51.400;5.494;2023-05-01T13:06:31;101282.94;;;20.87;58.22
47897;BME280;39629;51.400;5.494;2023-05-01T13:11:33;101282.81;;;20.18;58.41
47897;BME280;39629;51.400;5.494;2023-05-01T13:16:44;101284.56;;;20.44;55.92
47897;BME280;39629;51.400;5.494;2023-05-01T13:21:48;101286.41;;;19.91;59.84
47897;BME280;39629;51.400;5.494;2023-05-01T13:26:56;101281.06;;;20.67;57.00
47897;BME280;39629;51.400;5.494;2023-05-01T13:32:04;101287.72;;;21.25;58.06
47897;BME280;39629;51.400;5.494;2023-05-01T13:37:09;101283.81;;;20.40;54.66
47897;BME280;39629;51.400;5.494;2023-05-01T13:42:14;101284.94;;;21.04;54.15
47897;BME280;39629;51.400;5.494;2023-05-01T13:47:22;101288.50;;;21.28;53.04
47897;BME280;39629;51.400;5.494;2023-05-01T13:52:25;101296.84;;;20.73;49.37
47897;BME280;39629;51.400;5.494;2023-05-01T13:57:27;101305.31;;;20.85;43.50
47897;BME280;39629;51.400;5.494;2023-05-01T14:02:32;101297.00;;;21.60;41.69
47897;BME280;39629;51.400;5.494;2023-05-01T14:07:39;101307.47;;;20.75;43.05
47897;BME280;39629;51.400;5.494;2023-05-01T14:12:44;101308.47;;;20.49;42.75
47897;BME280;39629;51.400;5.494;2023-05-01T14:17:47;101301.28;;;20.51;45.33
47897;BME280;39629;51.400;5.494;2023-05-01T14:22:49;101305.41;;;21.29;42.73
47897;BME280;39629;51.400;5.494;2023-05-01T14:27:51;101308.31;;;19.76;43.27
47897;BME280;39629;51.400;5.494;2023-05-01T14:32:55;101300.09;;;20.82;42.43
47897;BME280;39629;51.400;5.494;2023-05-01T14:38:01;101294.16;;;20.73;43.40
47897;BME280;39629;51.400;5.494;2023-05-01T14:43:04;101297.69;;;20.52;44.91
47897;BME280;39629;51.400;5.494;2023-05-01T14:48:07;101293.72;;;20.86;41.96
47897;BME280;39629;51.400;5.494;2023-05-01T14:53:10;101294.69;;;20.83;41.50
47897;BME280;39629;51.400;5.494;2023-05-01T14:58:12;101312.78;;;20.76;43.41
47897;BME280;39629;51.400;5.494;2023-05-01T15:03:15;101328.47;;;19.85;44.70
47897;BME280;39629;51.400;5.494;2023-05-01T15:08:17;101332.69;;;19.65;45.87
47897;BME280;39629;51.400;5.494;2023-05-01T15:13:19;101343.19;;;19.71;44.63
47897;BME280;39629;51.400;5.494;2023-05-01T15:18:22;101341.31;;;19.17;45.06
47897;BME280;39629;51.400;5.494;2023-05-01T15:23:24;101345.16;;;19.36;45.48
47897;BME280;39629;51.400;5.494;2023-05-01T15:28:27;101338.00;;;18.79;45.80
47897;BME280;39629;51.400;5.494;2023-05-01T15:33:31;101357.63;;;19.64;44.68
47897;BME280;39629;51.400;5.494;2023-05-01T15:38:32;101351.72;;;19.54;47.52
47897;BME280;39629;51.400;5.494;2023-05-01T15:43:34;101358.97;;;19.21;47.29
47897;BME280;39629;51.400;5.494;2023-05-01T15:48:37;101356.41;;;18.88;47.86
47897;BME280;39629;51.400;5.494;2023-05-01T15:53:38;101359.03;;;18.58;48.13
47897;BME280;39629;51.400;5.494;2023-05-01T15:58:40;101355.75;;;19.10;48.94
47897;BME280;39629;51.400;5.494;2023-05-01T16:03:45;101365.50;;;18.81;48.75
47897;BME280;39629;51.400;5.494;2023-05-01T16:08:47;101365.22;;;18.60;50.22
47897;BME280;39629;51.400;5.494;2023-05-01T16:13:48;101372.59;;;19.12;51.46
47897;BME280;39629;51.400;5.494;2023-05-01T16:18:54;101362.84;;;19.11;52.08
47897;BME280;39629;51.400;5.494;2023-05-01T16:23:56;101371.09;;;18.71;53.45
47897;BME280;39629;51.400;5.494;2023-05-01T16:29:01;101377.44;;;18.67;54.94
47897;BME280;39629;51.400;5.494;2023-05-01T16:34:05;101379.03;;;18.42;53.80
47897;BME280;39629;51.400;5.494;2023-05-01T16:39:08;101392.34;;;18.05;54.93
47897;BME280;39629;51.400;5.494;2023-05-01T16:44:10;101397.25;;;17.88;56.10
47897;BME280;39629;51.400;5.494;2023-05-01T16:49:14;101402.53;;;17.52;59.88
47897;BME280;39629;51.400;5.494;2023-05-01T16:54:15;101410.03;;;17.31;62.20
47897;BME280;39629;51.400;5.494;2023-05-01T16:59:17;101420.88;;;17.22;66.19
47897;BME280;39629;51.400;5.494;2023-05-01T17:04:20;101428.13;;;16.68;69.80
47897;BME280;39629;51.400;5.494;2023-05-01T17:09:22;101423.66;;;16.71;76.72
47897;BME280;39629;51.400;5.494;2023-05-01T17:14:28;101435.63;;;16.45;75.48
47897;BME280;39629;51.400;5.494;2023-05-01T17:19:32;101432.81;;;16.54;74.93
47897;BME280;39629;51.400;5.494;2023-05-01T17:24:34;101441.88;;;16.44;73.06
47897;BME280;39629;51.400;5.494;2023-05-01T17:29:36;101447.38;;;16.33;70.96
47897;BME280;39629;51.400;5.494;2023-05-01T17:34:39;101448.56;;;16.13;71.97
47897;BME280;39629;51.400;5.494;2023-05-01T17:39:41;101454.88;;;16.05;73.71
47897;BME280;39629;51.400;5.494;2023-05-01T17:44:43;101454.69;;;16.15;74.01
47897;BME280;39629;51.400;5.494;2023-05-01T17:49:45;101452.97;;;16.14;74.91
47897;BME280;39629;51.400;5.494;2023-05-01T17:54:47;101465.69;;;15.92;77.72
47897;BME280;39629;51.400;5.494;2023-05-01T17:59:48;101466.97;;;15.65;76.68
47897;BME280;39629;51.400;5.494;2023-05-01T18:04:51;101467.97;;;15.56;82.29
47897;BME280;39629;51.400;5.494;2023-05-01T18:09:54;101474.25;;;15.47;82.31
47897;BME280;39629;51.400;5.494;2023-05-01T18:14:55;101475.25;;;15.40;83.83
47897;BME280;39629;51.400;5.494;2023-05-01T18:19:58;101485.97;;;15.32;84.93
47897;BME280;39629;51.400;5.494;2023-05-01T18:25:00;101491.28;;;15.29;86.86
47897;BME280;39629;51.400;5.494;2023-05-01T18:30:02;101494.94;;;15.21;87.91
47897;BME280;39629;51.400;5.494;2023-05-01T18:35:05;101503.91;;;15.06;98.16
47897;BME280;39629;51.400;5.494;2023-05-01T18:40:08;101518.34;;;14.74;100.00
47897;BME280;39629;51.400;5.494;2023-05-01T18:45:10;101525.44;;;14.72;100.00
47897;BME280;39629;51.400;5.494;2023-05-01T18:50:13;101534.41;;;14.55;100.00
47897;BME280;39629;51.400;5.494;2023-05-01T18:55:16;101545.06;;;14.46;100.00
47897;BME280;39629;51.400;5.494;2023-05-01T19:00:18;101543.34;;;14.42;100.00
47897;BME280;39629;51.400;5.494;2023-05-01T19:05:22;101556.66;;;14.33;100.00
47897;BME280;39629;51.400;5.494;2023-05-01T19:10:24;101557.59;;;14.22;100.00
47897;BME280;39629;51.400;5.494;2023-05-01T19:15:25;101562.94;;;14.11;100.00
47897;BME280;39629;51.400;5.494;2023-05-01T19:20:28;101570.13;;;13.89;100.00
47897;BME280;39629;51.400;5.494;2023-05-01T19:25:30;101571.03;;;13.79;100.00
47897;BME280;39629;51.400;5.494;2023-05-01T19:30:32;101579.91;;;13.64;100.00
47897;BME280;39629;51.400;5.494;2023-05-01T19:35:35;101589.66;;;13.50;100.00
47897;BME280;39629;51.400;5.494;2023-05-01T19:40:38;101592.31;;;13.43;100.00
47897;BME280;39629;51.400;5.494;2023-05-01T19:45:41;101602.06;;;13.27;100.00
47897;BME280;39629;51.400;5.494;2023-05-01T19:50:44;101608.22;;;13.16;100.00
47897;BME280;39629;51.400;5.494;2023-05-01T19:55:50;101607.34;;;13.07;100.00
47897;BME280;39629;51.400;5.494;2023-05-01T20:00:51;101619.72;;;12.91;100.00
47897;BME280;39629;51.400;5.494;2023-05-01T20:05:58;101628.50;;;12.84;100.00
47897;BME280;39629;51.400;5.494;2023-05-01T20:11:00;101625.88;;;12.70;100.00
47897;BME280;39629;51.400;5.494;2023-05-01T20:16:01;101646.06;;;12.54;100.00
47897;BME280;39629;51.400;5.494;2023-05-01T20:21:04;101647.78;;;12.43;100.00
47897;BME280;39629;51.400;5.494;2023-05-01T20:26:07;101645.09;;;12.34;100.00
47897;BME280;39629;51.400;5.494;2023-05-01T20:31:09;101651.25;;;12.23;100.00
47897;BME280;39629;51.400;5.494;2023-05-01T20:36:12;101660.88;;;12.17;100.00
47897;BME280;39629;51.400;5.494;2023-05-01T20:41:14;101661.75;;;12.06;100.00
47897;BME280;39629;51.400;5.494;2023-05-01T20:46:16;101682.81;;;12.05;100.00
47897;BME280;39629;51.400;5.494;2023-05-01T20:51:19;101678.38;;;11.95;100.00
47897;BME280;39629;51.400;5.494;2023-05-01T20:56:21;101675.72;;;11.90;100.00
47897;BME280;39629;51.400;5.494;2023-05-01T21:01:23;101679.16;;;11.72;100.00
47897;BME280;39629;51.400;5.494;2023-05-01T21:06:25;101679.09;;;11.66;100.00
47897;BME280;39629;51.400;5.494;2023-05-01T21:11:27;101685.22;;;11.58;100.00
47897;BME280;39629;51.400;5.494;2023-05-01T21:16:29;101690.38;;;11.38;100.00
47897;BME280;39629;51.400;5.494;2023-05-01T21:21:34;101692.91;;;11.28;100.00
47897;BME280;39629;51.400;5.494;2023-05-01T21:26:36;101691.97;;;11.22;100.00
47897;BME280;39629;51.400;5.494;2023-05-01T21:31:38;101698.06;;;11.14;100.00
47897;BME280;39629;51.400;5.494;2023-05-01T21:36:42;101704.16;;;11.08;100.00
47897;BME280;39629;51.400;5.494;2023-05-01T21:41:46;101712.81;;;10.95;100.00
47897;BME280;39629;51.400;5.494;2023-05-01T21:46:49;101719.78;;;10.89;100.00
47897;BME280;39629;51.400;5.494;2023-05-01T21:51:57;101732.00;;;10.83;100.00
47897;BME280;39629;51.400;5.494;2023-05-01T21:56:59;101742.31;;;10.67;100.00
47897;BME280;39629;51.400;5.494;2023-05-01T22:02:03;101736.88;;;10.50;100.00
47897;BME280;39629;51.400;5.494;2023-05-01T22:07:07;101738.63;;;10.48;100.00
47897;BME280;39629;51.400;5.494;2023-05-01T22:12:08;101750.13;;;10.56;100.00
47897;BME280;39629;51.400;5.494;2023-05-01T22:17:10;101744.88;;;10.60;100.00
47897;BME280;39629;51.400;5.494;2023-05-01T22:22:13;101745.78;;;10.62;100.00
47897;BME280;39629;51.400;5.494;2023-05-01T22:27:15;101735.31;;;10.68;100.00
47897;BME280;39629;51.400;5.494;2023-05-01T22:32:16;101749.38;;;10.68;100.00
47897;BME280;39629;51.400;5.494;2023-05-01T22:37:19;101739.72;;;10.69;100.00
47897;BME280;39629;51.400;5.494;2023-05-01T22:42:21;101764.34;;;10.74;100.00
47897;BME280;39629;51.400;5.494;2023-05-01T22:47:23;101770.53;;;10.76;100.00
47897;BME280;39629;51.400;5.494;2023-05-01T22:52:26;101774.91;;;10.77;100.00
47897;BME280;39629;51.400;5.494;2023-05-01T22:57:27;101792.44;;;10.75;100.00
47897;BME280;39629;51.400;5.494;2023-05-01T23:02:29;101789.78;;;10.70;100.00
47897;BME280;39629;51.400;5.494;2023-05-01T23:07:32;101790.66;;;10.74;100.00
47897;BME280;39629;51.400;5.494;2023-05-01T23:12:33;101794.22;;;10.76;100.00
47897;BME280;39629;51.400;5.494;2023-05-01T23:17:35;101798.66;;;10.79;100.00
47897;BME280;39629;51.400;5.494;2023-05-01T23:22:38;101808.41;;;10.84;100.00
47897;BME280;39629;51.400;5.494;2023-05-01T23:27:40;101812.84;;;10.88;100.00
47897;BME280;39629;51.400;5.494;2023-05-01T23:32:43;101809.28;;;10.86;100.00
47897;BME280;39629;51.400;5.494;2023-05-01T23:37:46;101807.56;;;10.87;100.00
47897;BME280;39629;51.400;5.494;2023-05-01T23:42:48;101822.53;;;10.93;100.00
47897;BME280;39629;51.400;5.494;2023-05-01T23:47:50;101818.13;;;10.93;100.00
47897;BME280;39629;51.400;5.494;2023-05-01T23:52:53;101819.91;;;10.93;100.00
47897;BME280;39629;51.400;5.494;2023-05-01T23:57:55;101828.66;;;10.90;100.00
